createdAt,value
2022-11-09T00:01:29.378Z,7.37
2022-11-09T00:04:00.099Z,7.28
2022-11-09T00:06:29.609Z,7.24
2022-11-09T00:09:02.649Z,7.22
2022-11-09T00:11:34.396Z,7.13
2022-11-09T00:14:02.487Z,7.19
2022-11-09T00:16:30.741Z,7.17
2022-11-09T00:18:58.958Z,7.15
2022-11-09T00:21:27.356Z,7.13
2022-11-09T00:23:55.557Z,7.14
2022-11-09T00:26:24.175Z,7.16
2022-11-09T00:28:52.736Z,7.13
2022-11-09T00:31:22.598Z,7.18
2022-11-09T00:33:56.861Z,7.18
2022-11-09T00:36:27.260Z,7.17
2022-11-09T00:39:01.203Z,7.08
2022-11-09T00:41:29.458Z,7.10
2022-11-09T00:43:57.637Z,7.13
2022-11-09T00:46:26.449Z,7.11
2022-11-09T00:48:56.314Z,7.08
2022-11-09T00:51:24.525Z,7.01
2022-11-09T00:53:55.120Z,7.01
2022-11-09T00:56:23.591Z,6.96
2022-11-09T00:58:58.153Z,6.97
2022-11-09T01:01:26.377Z,6.95
2022-11-09T01:03:54.494Z,6.96
2022-11-09T01:06:26.003Z,6.97
2022-11-09T01:08:54.481Z,6.96
2022-11-09T01:11:23.851Z,6.99
2022-11-09T01:13:52.308Z,6.99
2022-11-09T01:16:24.029Z,7.01
2022-11-09T01:18:56.958Z,7.02
2022-11-09T01:21:26.564Z,7.05
2022-11-09T01:23:55.862Z,7.06
2022-11-09T01:26:24.676Z,7.01
2022-11-09T01:28:52.875Z,7.00
2022-11-09T01:31:22.261Z,7.01
2022-11-09T01:33:50.587Z,6.92
2022-11-09T01:36:21.779Z,6.96
2022-11-09T01:38:50.580Z,6.95
2022-11-09T01:41:23.500Z,6.97
2022-11-09T01:44:11.642Z,6.99
2022-11-09T01:46:52.258Z,6.93
2022-11-09T01:49:47.186Z,6.93
2022-11-09T01:52:38.241Z,6.93
2022-11-09T01:55:18.148Z,6.89
2022-11-09T01:57:55.025Z,6.94
2022-11-09T02:00:23.610Z,6.96
2022-11-09T02:03:04.679Z,6.99
2022-11-09T02:05:35.401Z,6.99
2022-11-09T02:08:07.239Z,7.03
2022-11-09T02:10:55.381Z,7.05
2022-11-09T02:13:27.058Z,7.09
2022-11-09T02:15:55.217Z,7.07
2022-11-09T02:18:23.366Z,7.11
2022-11-09T02:20:57.372Z,7.13
2022-11-09T02:23:27.740Z,7.15
2022-11-09T02:26:08.130Z,7.16
2022-11-09T02:28:38.829Z,7.13
2022-11-09T02:31:11.105Z,7.11
2022-11-09T02:33:54.739Z,7.09
2022-11-09T02:36:24.140Z,7.12
2022-11-09T02:38:54.738Z,7.08
2022-11-09T02:41:24.571Z,7.11
2022-11-09T02:43:55.179Z,7.11
2022-11-09T02:46:34.326Z,7.13
2022-11-09T02:49:03.102Z,7.13
2022-11-09T02:51:31.246Z,7.07
2022-11-09T02:53:59.520Z,7.08
2022-11-09T02:56:28.040Z,7.09
2022-11-09T02:58:56.536Z,7.02
2022-11-09T03:01:24.725Z,7.02
2022-11-09T03:03:52.880Z,7.01
2022-11-09T03:06:20.932Z,6.98
2022-11-09T03:08:49.585Z,6.97
2022-11-09T03:11:18.151Z,6.94
2022-11-09T03:13:46.299Z,6.95
2022-11-09T03:16:14.289Z,6.96
2022-11-09T03:18:42.458Z,6.96
2022-11-09T03:21:10.685Z,6.92
2022-11-09T03:23:38.889Z,6.94
2022-11-09T03:26:07.171Z,6.91
2022-11-09T03:28:35.305Z,6.88
2022-11-09T03:31:03.430Z,6.88
2022-11-09T03:33:31.767Z,6.87
2022-11-09T03:35:59.935Z,6.88
2022-11-09T03:38:28.304Z,6.91
2022-11-09T03:40:56.686Z,6.89
2022-11-09T03:43:24.820Z,6.90
2022-11-09T03:45:52.967Z,6.91
2022-11-09T03:48:21.167Z,6.88
2022-11-09T03:50:49.436Z,6.89
2022-11-09T03:53:17.779Z,6.85
2022-11-09T03:55:46.606Z,6.85
2022-11-09T03:58:14.728Z,6.83
2022-11-09T04:00:42.978Z,6.82
2022-11-09T04:03:11.441Z,6.85
2022-11-09T04:05:39.475Z,6.88
2022-11-09T04:08:07.676Z,6.86
2022-11-09T04:10:35.919Z,6.85
2022-11-09T04:13:04.074Z,6.88
2022-11-09T04:15:32.087Z,6.86
2022-11-09T04:18:02.312Z,6.82
2022-11-09T04:20:31.664Z,6.83
2022-11-09T04:23:05.286Z,6.81
2022-11-09T04:25:37.911Z,6.79
2022-11-09T04:28:07.829Z,6.76
2022-11-09T04:30:37.772Z,6.79
2022-11-09T04:33:06.341Z,6.82
2022-11-09T04:35:35.336Z,6.78
2022-11-09T04:38:08.807Z,6.75
2022-11-09T04:40:37.278Z,6.79
2022-11-09T04:43:07.851Z,6.81
2022-11-09T04:45:36.022Z,6.78
2022-11-09T04:48:06.747Z,6.80
2022-11-09T04:50:35.036Z,6.82
2022-11-09T04:53:12.114Z,6.79
2022-11-09T04:55:41.093Z,6.75
2022-11-09T04:58:09.514Z,6.70
2022-11-09T05:00:38.543Z,6.70
2022-11-09T05:03:07.327Z,6.71
2022-11-09T05:05:37.361Z,6.66
2022-11-09T05:08:06.536Z,6.65
2022-11-09T05:10:36.160Z,6.62
2022-11-09T05:13:24.167Z,6.53
2022-11-09T05:15:52.364Z,6.54
2022-11-09T05:18:20.533Z,6.57
2022-11-09T05:20:48.676Z,6.60
2022-11-09T05:23:35.652Z,6.55
2022-11-09T05:26:04.038Z,6.50
2022-11-09T05:28:32.294Z,6.55
2022-11-09T05:31:00.426Z,6.58
2022-11-09T05:33:28.860Z,6.52
2022-11-09T05:35:57.959Z,6.55
2022-11-09T05:38:26.121Z,6.50
2022-11-09T05:40:54.992Z,6.52
2022-11-09T05:43:23.198Z,6.55
2022-11-09T05:45:51.486Z,6.57
2022-11-09T05:48:20.007Z,6.55
2022-11-09T05:50:48.183Z,6.54
2022-11-09T05:53:16.444Z,6.57
2022-11-09T05:55:44.604Z,6.56
2022-11-09T05:58:12.858Z,6.57
2022-11-09T06:00:41.368Z,6.59
2022-11-09T06:03:11.160Z,6.61
2022-11-09T06:05:41.164Z,6.60
2022-11-09T06:08:15.439Z,6.57
2022-11-09T06:10:43.980Z,6.61
2022-11-09T06:13:12.658Z,6.68
2022-11-09T06:15:40.848Z,6.68
2022-11-09T06:18:09.148Z,6.65
2022-11-09T06:20:37.938Z,6.63
2022-11-09T06:23:06.216Z,6.69
2022-11-09T06:25:34.487Z,6.74
2022-11-09T06:28:02.687Z,6.82
2022-11-09T06:30:33.860Z,6.89
2022-11-09T06:33:03.031Z,6.96
2022-11-09T06:35:31.143Z,6.99
2022-11-09T06:38:00.977Z,7.02
2022-11-09T06:40:29.850Z,7.05
2022-11-09T06:43:01.586Z,7.16
2022-11-09T06:45:30.992Z,7.25
2022-11-09T06:48:04.208Z,7.33
2022-11-09T06:50:33.888Z,7.35
2022-11-09T06:53:06.272Z,7.36
2022-11-09T06:55:35.777Z,7.39
2022-11-09T06:58:09.633Z,7.41
2022-11-09T07:00:38.331Z,7.41
2022-11-09T07:03:06.547Z,7.47
2022-11-09T07:05:40.256Z,7.67
2022-11-09T07:08:08.539Z,7.87
2022-11-09T07:10:37.138Z,8.05
2022-11-09T07:13:07.378Z,8.16
2022-11-09T07:15:37.412Z,8.13
2022-11-09T07:18:08.169Z,8.10
2022-11-09T07:20:37.296Z,8.04
2022-11-09T07:23:05.429Z,8.20
2022-11-09T07:25:33.981Z,8.33
2022-11-09T07:28:08.712Z,8.24
2022-11-09T07:30:37.408Z,8.38
2022-11-09T07:33:14.768Z,8.43
2022-11-09T07:35:43.048Z,8.52
2022-11-09T07:38:11.485Z,8.62
2022-11-09T07:40:40.886Z,8.74
2022-11-09T07:43:10.833Z,8.83
2022-11-09T07:45:39.411Z,8.83
2022-11-09T07:48:10.625Z,8.88
2022-11-09T07:50:40.732Z,9.03
2022-11-09T07:53:12.980Z,9.04
2022-11-09T07:55:42.193Z,9.07
2022-11-09T07:58:15.855Z,9.15
2022-11-09T08:00:44.544Z,9.15
2022-11-09T08:03:12.753Z,9.19
2022-11-09T08:05:41.268Z,9.29
2022-11-09T08:08:12.224Z,9.34
2022-11-09T08:10:40.811Z,9.36
2022-11-09T08:13:14.299Z,9.48
2022-11-09T08:15:42.866Z,9.64
2022-11-09T08:18:17.651Z,9.92
2022-11-09T08:20:46.886Z,10.11
2022-11-09T08:23:17.196Z,10.15
2022-11-09T08:25:45.518Z,10.31
2022-11-09T08:28:16.257Z,10.52
2022-11-09T08:30:45.900Z,10.53
2022-11-09T08:33:14.402Z,10.77
2022-11-09T08:35:42.612Z,11.00
2022-11-09T08:38:11.004Z,11.07
2022-11-09T08:40:39.214Z,11.42
2022-11-09T08:43:08.846Z,11.81
2022-11-09T08:45:38.968Z,11.89
2022-11-09T08:48:09.689Z,11.87
2022-11-09T08:50:38.004Z,11.62
2022-11-09T08:53:08.455Z,11.65
2022-11-09T08:55:37.112Z,12.02
2022-11-09T08:58:05.301Z,12.19
2022-11-09T09:00:33.564Z,12.29
2022-11-09T09:03:07.724Z,12.48
2022-11-09T09:05:37.419Z,12.56
2022-11-09T09:08:07.529Z,12.76
2022-11-09T09:10:35.747Z,12.75
2022-11-09T09:13:04.616Z,12.90
2022-11-09T09:15:33.132Z,13.09
2022-11-09T09:18:02.930Z,13.31
2022-11-09T09:20:31.918Z,13.43
2022-11-09T09:23:01.137Z,13.16
2022-11-09T09:25:29.611Z,12.96
2022-11-09T09:27:58.253Z,12.91
2022-11-09T09:30:26.879Z,13.36
2022-11-09T09:33:02.061Z,13.98
2022-11-09T09:35:30.259Z,14.42
2022-11-09T09:37:58.710Z,14.40
2022-11-09T09:40:55.636Z,14.12
2022-11-09T09:43:46.849Z,14.29
2022-11-09T09:46:17.989Z,14.38
2022-11-09T09:48:51.900Z,14.57
2022-11-09T09:51:26.629Z,14.72
2022-11-09T09:54:01.895Z,15.11
2022-11-09T09:56:39.050Z,15.11
2022-11-09T09:59:33.819Z,14.70
2022-11-09T10:02:02.355Z,14.06
2022-11-09T10:04:38.498Z,14.05
2022-11-09T10:07:27.367Z,13.74
2022-11-09T10:10:22.051Z,13.54
2022-11-09T10:13:09.059Z,13.39
2022-11-09T10:15:53.414Z,13.32
2022-11-09T10:18:55.993Z,13.32
2022-11-09T10:21:48.127Z,13.04
2022-11-09T10:24:36.875Z,12.94
2022-11-09T10:27:43.394Z,13.21
2022-11-09T10:30:18.059Z,13.22
2022-11-09T10:32:51.959Z,13.25
2022-11-09T10:35:25.609Z,13.04
2022-11-09T10:37:55.414Z,13.06
2022-11-09T10:40:26.672Z,13.13
2022-11-09T10:43:07.789Z,13.24
2022-11-09T10:45:38.801Z,13.22
2022-11-09T10:48:10.939Z,13.12
2022-11-09T10:50:48.496Z,13.25
2022-11-09T10:53:24.068Z,13.25
2022-11-09T10:56:20.716Z,13.35
2022-11-09T10:58:53.111Z,13.62
2022-11-09T11:01:25.635Z,13.67
2022-11-09T11:03:57.795Z,13.72
2022-11-09T11:06:26.001Z,13.67
2022-11-09T11:09:06.214Z,13.76
2022-11-09T11:11:37.383Z,13.81
2022-11-09T11:14:23.337Z,13.93
2022-11-09T11:16:53.381Z,13.85
2022-11-09T11:19:41.956Z,13.87
2022-11-09T11:22:19.629Z,13.73
2022-11-09T11:24:55.487Z,13.94
2022-11-09T11:27:49.997Z,14.57
2022-11-09T11:30:36.701Z,15.35
2022-11-09T11:33:19.289Z,15.79
2022-11-09T11:36:04.880Z,15.37
2022-11-09T11:38:48.866Z,14.78
2022-11-09T11:41:28.823Z,14.66
2022-11-09T11:44:31.546Z,14.70
2022-11-09T11:47:15.279Z,14.84
2022-11-09T11:49:54.361Z,14.92
2022-11-09T11:52:40.456Z,14.80
2022-11-09T11:55:42.877Z,14.52
2022-11-09T11:58:29.123Z,14.88
2022-11-09T12:01:16.208Z,15.27
2022-11-09T12:04:11.740Z,15.26
2022-11-09T12:07:15.031Z,15.17
2022-11-09T12:09:58.310Z,15.25
2022-11-09T12:12:44.211Z,15.72
2022-11-09T12:15:51.036Z,15.75
2022-11-09T12:18:31.160Z,16.55
2022-11-09T12:21:29.112Z,16.99
2022-11-09T12:24:21.638Z,17.09
2022-11-09T12:27:31.682Z,18.14
2022-11-09T12:30:22.530Z,18.64
2022-11-09T12:33:11.527Z,18.24
2022-11-09T12:36:16.543Z,18.07
2022-11-09T12:39:11.295Z,17.82
2022-11-09T12:41:40.917Z,17.81
2022-11-09T12:45:00.170Z,17.74
2022-11-09T12:47:36.137Z,17.62
2022-11-09T12:50:05.893Z,17.22
2022-11-09T12:52:34.621Z,16.68
2022-11-09T12:55:05.458Z,16.53
2022-11-09T12:57:33.860Z,15.87
2022-11-09T13:00:02.220Z,15.64
2022-11-09T13:02:35.284Z,15.41
2022-11-09T13:05:07.961Z,15.31
2022-11-09T13:07:46.109Z,14.98
2022-11-09T13:10:36.472Z,14.70
2022-11-09T13:13:07.566Z,14.47
2022-11-09T13:15:38.218Z,14.44
2022-11-09T13:18:26.783Z,14.37
2022-11-09T13:20:57.108Z,14.22
2022-11-09T13:26:31.907Z,13.92
2022-11-09T13:29:15.143Z,13.98
2022-11-09T13:32:22.571Z,13.82
2022-11-09T13:34:55.767Z,13.70
2022-11-09T13:37:42.110Z,13.69
2022-11-09T13:40:32.298Z,13.66
2022-11-09T13:43:00.432Z,13.60
2022-11-09T13:45:46.554Z,13.64
2022-11-09T13:48:22.520Z,13.56
2022-11-09T13:50:56.833Z,13.45
2022-11-09T13:53:37.186Z,13.44
2022-11-09T13:56:32.727Z,13.38
2022-11-09T13:59:07.827Z,13.37
2022-11-09T14:01:46.385Z,13.30
2022-11-09T14:04:40.474Z,13.25
2022-11-09T14:07:31.529Z,13.23
2022-11-09T14:10:24.411Z,13.25
2022-11-09T14:13:17.457Z,13.25
2022-11-09T14:15:45.496Z,13.21
2022-11-09T14:18:24.397Z,13.14
2022-11-09T14:21:33.985Z,13.01
2022-11-09T14:24:24.953Z,12.97
2022-11-09T14:27:23.140Z,12.91
2022-11-09T14:29:56.737Z,13.01
2022-11-09T14:32:27.022Z,13.05
2022-11-09T14:35:34.263Z,13.04
2022-11-09T14:38:17.470Z,12.98
2022-11-09T14:40:48.156Z,13.02
2022-11-09T14:43:34.638Z,12.99
2022-11-09T14:46:21.066Z,12.91
2022-11-09T14:48:53.910Z,12.85
2022-11-09T14:51:32.554Z,12.72
2022-11-09T14:54:01.973Z,12.71
2022-11-09T14:56:31.348Z,12.74
2022-11-09T14:59:06.477Z,12.74
2022-11-09T15:01:34.467Z,12.68
2022-11-09T15:04:13.696Z,12.63
2022-11-09T15:06:55.402Z,12.62
2022-11-09T15:09:33.178Z,12.56
2022-11-09T15:12:02.640Z,12.55
2022-11-09T15:14:34.558Z,12.53
2022-11-09T15:17:28.068Z,12.52
2022-11-09T15:19:58.394Z,12.42
2022-11-09T15:22:53.802Z,12.39
2022-11-09T15:25:31.229Z,12.27
2022-11-09T15:28:02.263Z,12.26
2022-11-09T15:30:32.561Z,12.24
2022-11-09T15:33:01.396Z,12.17
2022-11-09T15:35:29.570Z,12.13
2022-11-09T15:37:57.727Z,12.08
2022-11-09T15:40:26.015Z,12.04
2022-11-09T15:42:54.248Z,11.99
2022-11-09T15:45:22.507Z,11.88
2022-11-09T15:47:55.659Z,11.84
2022-11-09T15:50:26.906Z,11.77
2022-11-09T15:52:55.174Z,11.72
2022-11-09T15:55:23.770Z,11.75
2022-11-09T15:57:55.231Z,11.72
2022-11-09T16:00:23.418Z,11.73
2022-11-09T16:02:51.618Z,11.73
2022-11-09T16:05:20.292Z,11.75
2022-11-09T16:07:54.227Z,11.75
2022-11-09T16:10:27.805Z,11.72
2022-11-09T16:12:57.666Z,11.68
2022-11-09T16:15:26.897Z,11.57
2022-11-09T16:17:55.086Z,11.46
2022-11-09T16:20:23.172Z,11.44
2022-11-09T16:22:51.381Z,11.42
2022-11-09T16:25:20.052Z,11.44
2022-11-09T16:27:50.872Z,11.47
2022-11-09T16:30:20.757Z,11.46
2022-11-09T16:32:48.796Z,11.45
2022-11-09T16:35:27.383Z,11.41
2022-11-09T16:37:58.788Z,11.40
2022-11-09T16:40:29.371Z,11.41
2022-11-09T16:42:59.505Z,11.38
2022-11-09T16:45:32.127Z,11.32
2022-11-09T16:48:05.906Z,11.30
2022-11-09T16:50:34.108Z,11.30
2022-11-09T16:53:02.336Z,11.26
2022-11-09T16:55:30.644Z,11.19
2022-11-09T16:57:59.762Z,11.23
2022-11-09T17:00:42.760Z,11.15
2022-11-09T17:03:17.236Z,11.09
2022-11-09T17:05:46.150Z,11.08
2022-11-09T17:08:15.385Z,11.08
2022-11-09T17:10:46.930Z,11.03
2022-11-09T17:13:15.558Z,10.93
2022-11-09T17:15:46.238Z,10.89
2022-11-09T17:18:15.596Z,10.83
2022-11-09T17:20:51.422Z,10.79
2022-11-09T17:23:20.295Z,10.73
2022-11-09T17:26:04.003Z,10.70
2022-11-09T17:28:32.824Z,10.67
2022-11-09T17:31:07.621Z,10.66
2022-11-09T17:33:36.231Z,10.65
2022-11-09T17:36:07.646Z,10.60
2022-11-09T17:38:36.283Z,10.60
2022-11-09T17:41:08.214Z,10.55
2022-11-09T17:43:38.450Z,10.49
2022-11-09T17:46:13.895Z,10.46
2022-11-09T17:48:43.941Z,10.43
2022-11-09T17:51:14.076Z,10.35
2022-11-09T17:53:42.819Z,10.38
2022-11-09T17:56:11.688Z,10.39
2022-11-09T17:58:42.681Z,10.39
2022-11-09T18:01:16.428Z,10.32
2022-11-09T18:03:44.794Z,10.30
2022-11-09T18:06:19.686Z,10.33
2022-11-09T18:09:10.859Z,10.35
2022-11-09T18:11:37.446Z,10.27
2022-11-09T18:14:05.874Z,10.29
2022-11-09T18:16:34.113Z,10.21
2022-11-09T18:19:03.787Z,10.17
2022-11-09T18:21:33.771Z,10.13
2022-11-09T18:24:05.246Z,10.11
2022-11-09T18:26:33.446Z,10.00
2022-11-09T18:29:01.633Z,10.01
2022-11-09T18:31:29.978Z,9.97
2022-11-09T18:33:58.196Z,9.95
2022-11-09T18:36:28.136Z,9.88
2022-11-09T18:38:56.456Z,9.82
2022-11-09T18:41:25.346Z,9.86
2022-11-09T18:43:54.516Z,9.81
2022-11-09T18:46:22.792Z,9.83
2022-11-09T18:48:52.398Z,9.72
2022-11-09T18:51:21.082Z,9.70
2022-11-09T18:53:49.972Z,9.73
2022-11-09T18:56:24.299Z,9.68
2022-11-09T18:58:54.798Z,9.64
2022-11-09T19:01:26.001Z,9.66
2022-11-09T19:03:59.564Z,9.60
2022-11-09T19:06:28.807Z,9.58
2022-11-09T19:09:15.959Z,9.55
2022-11-09T19:11:44.159Z,9.53
2022-11-09T19:14:12.438Z,9.50
2022-11-09T19:16:40.603Z,9.44
2022-11-09T19:19:13.457Z,9.43
2022-11-09T19:21:56.098Z,9.50
2022-11-09T19:24:34.078Z,9.44
2022-11-09T19:27:02.343Z,9.42
2022-11-09T19:29:30.597Z,9.39
2022-11-09T19:31:59.453Z,9.40
2022-11-09T19:34:27.639Z,9.40
2022-11-09T19:36:55.742Z,9.40
2022-11-09T19:39:24.067Z,9.34
2022-11-09T19:41:52.157Z,9.32
2022-11-09T19:44:20.488Z,9.28
2022-11-09T19:46:48.734Z,9.22
2022-11-09T19:49:16.916Z,9.21
2022-11-09T19:51:44.958Z,9.23
2022-11-09T19:54:14.086Z,9.20
2022-11-09T19:56:42.655Z,9.19
2022-11-09T19:59:14.877Z,9.08
2022-11-09T20:01:43.616Z,9.02
2022-11-09T20:04:12.447Z,9.00
2022-11-09T20:06:41.184Z,8.99
2022-11-09T20:09:09.506Z,8.93
2022-11-09T20:11:57.999Z,8.95
2022-11-09T20:14:26.259Z,8.83
2022-11-09T20:16:55.481Z,8.84
2022-11-09T20:19:25.746Z,8.90
2022-11-09T20:21:54.011Z,8.88
2022-11-09T20:24:22.261Z,8.86
2022-11-09T20:26:50.487Z,8.83
2022-11-09T20:29:18.688Z,8.80
2022-11-09T20:31:46.839Z,8.74
2022-11-09T20:34:15.080Z,8.72
2022-11-09T20:36:43.322Z,8.72
2022-11-09T20:39:11.612Z,8.70
2022-11-09T20:41:39.853Z,8.65
2022-11-09T20:44:08.366Z,8.56
2022-11-09T20:46:37.083Z,8.46
2022-11-09T20:49:05.643Z,8.45
2022-11-09T20:51:34.087Z,8.44
2022-11-09T20:54:06.893Z,8.38
2022-11-09T20:56:36.775Z,8.26
2022-11-09T20:59:05.099Z,8.27
2022-11-09T21:01:33.467Z,8.25
2022-11-09T21:04:02.240Z,8.26
2022-11-09T21:06:31.432Z,8.22
2022-11-09T21:09:01.443Z,8.15
2022-11-09T21:11:35.877Z,8.12
2022-11-09T21:14:04.284Z,8.08
2022-11-09T21:16:32.581Z,8.09
2022-11-09T21:19:00.596Z,8.05
2022-11-09T21:21:35.100Z,8.04
2022-11-09T21:24:23.805Z,8.00
2022-11-09T21:27:10.580Z,7.92
2022-11-09T21:29:50.736Z,7.81
2022-11-09T21:32:30.965Z,7.77
2022-11-09T21:34:59.086Z,7.76
2022-11-09T21:37:27.325Z,7.74
2022-11-09T21:39:55.535Z,7.76
2022-11-09T21:42:23.671Z,7.71
2022-11-09T21:44:51.720Z,7.70
2022-11-09T21:47:20.101Z,7.66
2022-11-09T21:49:48.274Z,7.68
2022-11-09T21:52:16.951Z,7.63
2022-11-09T21:54:45.226Z,7.56
2022-11-09T21:57:13.413Z,7.55
2022-11-09T21:59:41.622Z,7.54
2022-11-09T22:02:11.188Z,7.52
2022-11-09T22:04:39.476Z,7.47
2022-11-09T22:07:07.807Z,7.41
2022-11-09T22:10:06.129Z,7.36
2022-11-09T22:12:43.613Z,7.36
2022-11-09T22:15:30.826Z,7.32
2022-11-09T22:17:59.062Z,7.28
2022-11-09T22:20:45.903Z,7.27
2022-11-09T22:23:14.135Z,7.23
2022-11-09T22:25:47.761Z,7.24
2022-11-09T22:28:16.799Z,7.24
2022-11-09T22:30:44.887Z,7.22
2022-11-09T22:33:13.124Z,7.20
2022-11-09T22:35:41.298Z,7.13
2022-11-09T22:38:09.636Z,7.12
2022-11-09T22:40:37.598Z,7.08
2022-11-09T22:43:05.956Z,7.07
2022-11-09T22:45:34.398Z,7.02
2022-11-09T22:48:02.879Z,6.98
2022-11-09T22:50:31.357Z,7.02
2022-11-09T22:53:03.708Z,6.99
2022-11-09T22:55:32.829Z,6.96
2022-11-09T22:58:01.422Z,6.96
2022-11-09T23:00:29.888Z,6.93
2022-11-09T23:02:58.575Z,6.92
2022-11-09T23:05:27.066Z,6.87
2022-11-09T23:07:56.010Z,6.92
2022-11-09T23:10:24.429Z,6.92
2022-11-09T23:12:52.701Z,6.97
2022-11-09T23:15:21.293Z,6.95
2022-11-09T23:18:08.242Z,6.93
2022-11-09T23:20:36.357Z,6.95
2022-11-09T23:23:04.490Z,6.97
2022-11-09T23:25:52.178Z,6.96
2022-11-09T23:28:20.862Z,6.91
2022-11-09T23:30:49.442Z,6.91
2022-11-09T23:33:17.611Z,6.91
2022-11-09T23:35:45.797Z,6.89
2022-11-09T23:38:13.963Z,6.89
2022-11-09T23:40:42.683Z,6.92
2022-11-09T23:43:14.777Z,6.87
2022-11-09T23:45:43.299Z,6.83
2022-11-09T23:48:19.745Z,6.83
2022-11-09T23:50:48.346Z,6.81
2022-11-09T23:53:16.727Z,6.84
2022-11-09T23:55:45.751Z,6.78
2022-11-09T23:58:14.299Z,6.79
